Terminal Aerodrome Forecast
Issued by NWS

Home | Current Version | Previous Version | Text Only | Print | Product List | Glossary On
Versions: 1 2 3 4 5 6 7 8 9 10 11 12 13 14 15 16 17 18 19 20 21 22 23 24 25 26 27 28
000
FTUS43 KGLD 221806 CCA
TAFMCK
TAF COR
KMCK 221806Z 2218/2318 03010KT P6SM SCT120
     FM222100 09015G23KT P6SM VCTS SCT040CB BKN150
     FM230000 15010KT P6SM -TSRA OVC035CB
      TEMPO 2301/2305 VRB25G50KT 3SM TSRA BKN025CB
     FM230700 VRB06KT P6SM VCTS SCT040CB OVC100
     FM230900 VRB06KT P6SM SCT015 SCT200
     FM231400 27012KT P6SM SCT120=

USA.gov is the U.S. government's official web portal to all federal, state and local government web resources and services.